createdAt,value
2023-05-29T00:00:32.837Z,18.91
2023-05-29T00:02:59.075Z,18.92
2023-05-29T00:05:25.310Z,18.91
2023-05-29T00:07:51.487Z,18.90
2023-05-29T00:10:17.664Z,18.90
2023-05-29T00:12:43.814Z,18.89
2023-05-29T00:15:09.942Z,18.89
2023-05-29T00:17:36.106Z,18.89
2023-05-29T00:20:02.427Z,18.90
2023-05-29T00:22:28.691Z,18.90
2023-05-29T00:24:54.869Z,18.90
2023-05-29T00:27:21.023Z,18.90
2023-05-29T00:29:47.159Z,18.90
2023-05-29T00:32:13.298Z,18.90
2023-05-29T00:34:39.443Z,18.90
2023-05-29T00:37:05.608Z,18.90
2023-05-29T00:39:31.793Z,18.89
2023-05-29T00:41:57.997Z,18.89
2023-05-29T00:44:24.124Z,18.89
2023-05-29T00:46:50.286Z,18.88
2023-05-29T00:49:16.446Z,18.89
2023-05-29T00:51:42.578Z,18.87
2023-05-29T00:54:08.726Z,18.88
2023-05-29T00:56:34.887Z,18.87
2023-05-29T00:59:01.019Z,18.87
2023-05-29T01:01:27.185Z,18.87
2023-05-29T01:03:53.394Z,18.87
2023-05-29T01:06:19.584Z,18.87
2023-05-29T01:08:45.864Z,18.84
2023-05-29T01:11:12.032Z,18.86
2023-05-29T01:13:38.171Z,18.84
2023-05-29T01:16:04.464Z,18.83
2023-05-29T01:18:30.831Z,18.82
2023-05-29T01:20:57.209Z,18.81
2023-05-29T01:23:23.669Z,18.82
2023-05-29T01:25:49.833Z,18.80
2023-05-29T01:28:16.001Z,18.80
2023-05-29T01:30:42.144Z,18.81
2023-05-29T01:33:08.364Z,18.81
2023-05-29T01:35:34.563Z,18.79
2023-05-29T01:38:00.743Z,18.79
2023-05-29T01:40:26.930Z,18.79
2023-05-29T01:42:53.087Z,18.78
2023-05-29T01:45:19.222Z,18.77
2023-05-29T01:47:45.433Z,18.77
2023-05-29T01:50:11.611Z,18.79
2023-05-29T01:52:37.750Z,18.77
2023-05-29T01:55:03.898Z,18.77
2023-05-29T01:57:30.069Z,18.76
2023-05-29T01:59:56.198Z,18.76
2023-05-29T02:02:22.380Z,18.76
2023-05-29T02:04:48.522Z,18.76
2023-05-29T02:07:14.686Z,18.73
2023-05-29T02:09:40.867Z,18.71
2023-05-29T02:12:07.001Z,18.70
2023-05-29T02:14:33.193Z,18.70
2023-05-29T02:16:59.484Z,18.70
2023-05-29T02:19:25.646Z,18.70
2023-05-29T02:21:51.781Z,18.69
2023-05-29T02:24:17.943Z,18.69
2023-05-29T02:26:44.075Z,18.68
2023-05-29T02:29:10.217Z,18.68
2023-05-29T02:31:36.507Z,18.67
2023-05-29T02:34:02.807Z,18.65
2023-05-29T02:36:29.039Z,18.66
2023-05-29T02:38:55.476Z,18.66
2023-05-29T02:41:21.685Z,18.66
2023-05-29T02:43:47.810Z,18.66
2023-05-29T02:46:14.048Z,18.65
2023-05-29T02:48:40.210Z,18.64
2023-05-29T02:51:06.345Z,18.63
2023-05-29T02:53:32.498Z,18.63
2023-05-29T02:55:58.630Z,18.63
2023-05-29T02:58:24.772Z,18.63
2023-05-29T03:00:50.933Z,18.62
2023-05-29T03:03:17.182Z,18.62
2023-05-29T03:05:43.389Z,18.61
2023-05-29T03:08:09.565Z,18.60
2023-05-29T03:10:35.711Z,18.59
2023-05-29T03:13:01.851Z,18.60
2023-05-29T03:15:28.012Z,18.58
2023-05-29T03:17:54.203Z,18.59
2023-05-29T03:20:20.409Z,18.59
2023-05-29T03:22:46.570Z,18.58
2023-05-29T03:25:12.736Z,18.58
2023-05-29T03:27:38.934Z,18.57
2023-05-29T03:30:05.094Z,18.58
2023-05-29T03:32:31.270Z,18.58
2023-05-29T03:34:57.461Z,18.56
2023-05-29T03:37:23.640Z,18.58
2023-05-29T03:39:49.785Z,18.56
2023-05-29T03:42:15.939Z,18.55
2023-05-29T03:44:42.117Z,18.55
2023-05-29T03:47:08.298Z,18.54
2023-05-29T03:49:34.492Z,18.55
2023-05-29T03:52:00.683Z,18.54
2023-05-29T03:54:26.844Z,18.54
2023-05-29T03:56:53.010Z,18.54
2023-05-29T03:59:19.177Z,18.53
2023-05-29T04:01:45.338Z,18.54
2023-05-29T04:04:11.655Z,18.53
2023-05-29T04:06:37.979Z,18.52
2023-05-29T04:09:04.139Z,18.53
2023-05-29T04:11:30.288Z,18.52
2023-05-29T04:13:56.451Z,18.50
2023-05-29T04:16:22.618Z,18.50
2023-05-29T04:18:48.766Z,18.51
2023-05-29T04:21:14.932Z,18.50
2023-05-29T04:23:41.075Z,18.49
2023-05-29T04:26:07.213Z,18.49
2023-05-29T04:28:33.393Z,18.49
2023-05-29T04:30:59.601Z,18.49
2023-05-29T04:33:25.767Z,18.52
2023-05-29T04:35:51.928Z,18.52
2023-05-29T04:38:18.068Z,18.54
2023-05-29T04:40:44.225Z,18.49
2023-05-29T04:43:10.404Z,18.47
2023-05-29T04:45:36.548Z,18.47
2023-05-29T04:48:02.697Z,18.46
2023-05-29T04:50:28.897Z,18.44
2023-05-29T04:52:55.039Z,18.45
2023-05-29T04:55:21.185Z,18.45
2023-05-29T04:57:47.339Z,18.45
2023-05-29T05:00:13.478Z,18.44
2023-05-29T05:02:39.647Z,18.43
2023-05-29T05:05:05.827Z,18.44
2023-05-29T05:07:31.968Z,18.44
2023-05-29T05:09:58.117Z,18.43
2023-05-29T05:12:24.276Z,18.44
2023-05-29T05:14:50.414Z,18.42
2023-05-29T05:17:16.555Z,18.43
2023-05-29T05:19:42.737Z,18.43
2023-05-29T05:22:08.894Z,18.42
2023-05-29T05:24:35.030Z,18.42
2023-05-29T05:27:01.201Z,18.41
2023-05-29T05:29:28.435Z,18.40
2023-05-29T05:31:54.692Z,18.40
2023-05-29T05:34:20.878Z,18.41
2023-05-29T05:36:47.043Z,18.40
2023-05-29T05:39:13.199Z,18.41
2023-05-29T05:41:39.386Z,18.41
2023-05-29T05:44:05.533Z,18.39
2023-05-29T05:46:31.700Z,18.40
2023-05-29T05:48:57.963Z,18.39
2023-05-29T05:51:24.109Z,18.40
2023-05-29T05:53:50.314Z,18.40
2023-05-29T05:56:16.542Z,18.39
2023-05-29T05:58:42.731Z,18.38
2023-05-29T06:01:08.892Z,18.37
2023-05-29T06:03:35.103Z,18.38
2023-05-29T06:06:01.371Z,18.38
2023-05-29T06:08:27.531Z,18.39
2023-05-29T06:10:53.882Z,18.38
2023-05-29T06:13:20.209Z,18.38
2023-05-29T06:15:46.393Z,18.38
2023-05-29T06:18:12.816Z,18.39
2023-05-29T06:20:39.092Z,18.37
2023-05-29T06:23:05.289Z,18.37
2023-05-29T06:25:31.456Z,18.36
2023-05-29T06:27:57.738Z,18.35
2023-05-29T06:30:23.917Z,18.37
2023-05-29T06:32:50.126Z,18.37
2023-05-29T06:35:16.332Z,18.38
2023-05-29T06:37:42.492Z,18.38
2023-05-29T06:40:08.649Z,18.37
2023-05-29T06:42:34.807Z,18.38
2023-05-29T06:45:00.947Z,18.37
2023-05-29T06:47:27.179Z,18.39
2023-05-29T06:49:53.334Z,18.39
2023-05-29T06:52:19.467Z,18.40
2023-05-29T06:54:45.618Z,18.39
2023-05-29T06:57:11.854Z,18.38
2023-05-29T06:59:38.046Z,18.38
2023-05-29T07:02:04.220Z,18.39
2023-05-29T07:04:30.355Z,18.41
2023-05-29T07:06:56.505Z,18.42
2023-05-29T07:09:22.674Z,18.43
2023-05-29T07:11:48.823Z,18.42
2023-05-29T07:14:14.995Z,18.41
2023-05-29T07:16:41.252Z,18.40
2023-05-29T07:19:07.541Z,18.41
2023-05-29T07:21:46.352Z,18.40
2023-05-29T07:24:12.659Z,18.41
2023-05-29T07:26:38.799Z,18.40
2023-05-29T07:29:05.451Z,18.42
2023-05-29T07:31:31.697Z,18.42
2023-05-29T07:33:57.873Z,18.41
2023-05-29T07:36:24.059Z,18.42
2023-05-29T07:38:50.217Z,18.42
2023-05-29T07:41:16.363Z,18.45
2023-05-29T07:43:42.561Z,18.44
2023-05-29T07:46:08.778Z,18.44
2023-05-29T07:48:34.951Z,18.44
2023-05-29T07:51:01.135Z,18.44
2023-05-29T07:53:27.280Z,18.44
2023-05-29T07:55:53.446Z,18.44
2023-05-29T07:58:19.664Z,18.45
2023-05-29T08:00:45.824Z,18.45
2023-05-29T08:03:12.091Z,18.44
2023-05-29T08:05:38.285Z,18.45
2023-05-29T08:08:04.430Z,18.47
2023-05-29T08:10:30.603Z,18.46
2023-05-29T08:12:56.798Z,18.46
2023-05-29T08:15:22.944Z,18.45
2023-05-29T08:17:49.141Z,18.44
2023-05-29T08:20:15.365Z,18.46
2023-05-29T08:22:41.522Z,18.46
2023-05-29T08:25:07.659Z,18.46
2023-05-29T08:27:33.832Z,18.46
2023-05-29T08:29:59.973Z,18.47
2023-05-29T08:32:26.184Z,18.48
2023-05-29T08:34:52.382Z,18.48
2023-05-29T08:37:18.536Z,18.47
2023-05-29T08:39:44.709Z,18.48
2023-05-29T08:42:10.872Z,18.47
2023-05-29T08:44:37.068Z,18.46
2023-05-29T08:47:03.225Z,18.46
2023-05-29T08:49:29.403Z,18.47
2023-05-29T08:51:55.555Z,18.47
2023-05-29T08:54:21.704Z,18.47
2023-05-29T08:56:47.855Z,18.47
2023-05-29T08:59:14.000Z,18.47
2023-05-29T09:01:40.346Z,18.47
2023-05-29T09:04:06.761Z,18.48
2023-05-29T09:06:32.954Z,18.48
2023-05-29T09:08:59.100Z,18.48
2023-05-29T09:11:25.248Z,18.49
2023-05-29T09:13:51.380Z,18.49
2023-05-29T09:16:17.553Z,18.49
2023-05-29T09:18:43.742Z,18.50
2023-05-29T09:21:09.950Z,18.51
2023-05-29T09:23:36.131Z,18.51
2023-05-29T09:26:02.302Z,18.52
2023-05-29T09:28:28.444Z,18.53
2023-05-29T09:30:54.781Z,18.53
2023-05-29T09:33:21.092Z,18.53
2023-05-29T09:35:47.272Z,18.53
2023-05-29T09:38:24.164Z,18.53
2023-05-29T09:40:59.506Z,18.53
2023-05-29T09:43:25.659Z,18.53
2023-05-29T09:45:51.835Z,18.53
2023-05-29T09:48:18.156Z,18.54
2023-05-29T09:50:44.291Z,18.55
2023-05-29T09:53:10.428Z,18.56
2023-05-29T09:55:36.579Z,18.55
2023-05-29T09:58:02.724Z,18.56
2023-05-29T10:00:28.860Z,18.55
2023-05-29T10:02:55.181Z,18.55
2023-05-29T10:05:21.375Z,18.55
2023-05-29T10:07:47.517Z,18.58
2023-05-29T10:10:13.706Z,18.57
2023-05-29T10:12:39.966Z,18.57
2023-05-29T10:15:06.117Z,18.57
2023-05-29T10:17:32.313Z,18.58
2023-05-29T10:19:58.465Z,18.58
2023-05-29T10:22:24.615Z,18.59
2023-05-29T10:24:50.838Z,18.58
2023-05-29T10:27:16.975Z,18.59
2023-05-29T10:29:43.138Z,18.59
2023-05-29T10:32:09.373Z,18.59
2023-05-29T10:34:35.542Z,18.61
2023-05-29T10:37:01.683Z,18.61
2023-05-29T10:39:27.842Z,18.60
2023-05-29T10:41:53.972Z,18.60
2023-05-29T10:44:20.116Z,18.60
2023-05-29T10:46:46.435Z,18.62
2023-05-29T10:49:12.675Z,18.63
2023-05-29T10:51:38.831Z,18.61
2023-05-29T10:54:05.021Z,18.61
2023-05-29T10:56:31.170Z,18.63
2023-05-29T10:58:57.301Z,18.62
2023-05-29T11:01:23.536Z,18.62
2023-05-29T11:03:49.714Z,18.62
2023-05-29T11:06:15.887Z,18.62
2023-05-29T11:08:42.092Z,18.62
2023-05-29T11:11:08.242Z,18.63
2023-05-29T11:13:34.378Z,18.63
2023-05-29T11:16:00.572Z,18.65
2023-05-29T11:18:26.745Z,18.65
2023-05-29T11:20:53.000Z,18.65
2023-05-29T11:23:19.237Z,18.66
2023-05-29T11:25:45.372Z,18.66
2023-05-29T11:28:11.598Z,18.66
2023-05-29T11:30:37.839Z,18.67
2023-05-29T11:33:04.013Z,18.67
2023-05-29T11:35:30.211Z,18.68
2023-05-29T11:37:56.388Z,18.68
2023-05-29T11:40:22.564Z,18.69
2023-05-29T11:42:48.721Z,18.68
2023-05-29T11:45:14.920Z,18.68
2023-05-29T11:47:41.212Z,18.69
2023-05-29T11:50:07.438Z,18.69
2023-05-29T11:52:33.622Z,18.70
2023-05-29T11:54:59.774Z,18.70
2023-05-29T11:57:25.943Z,18.70
2023-05-29T11:59:52.084Z,18.68
2023-05-29T12:02:18.294Z,18.69
2023-05-29T12:04:44.500Z,18.70
2023-05-29T12:07:10.684Z,18.69
2023-05-29T12:09:36.816Z,18.69
2023-05-29T12:12:02.954Z,18.70
2023-05-29T12:14:29.139Z,18.70
2023-05-29T12:16:55.318Z,18.73
2023-05-29T12:19:21.515Z,18.72
2023-05-29T12:21:47.724Z,18.74
2023-05-29T12:24:15.157Z,18.74
2023-05-29T12:26:41.506Z,18.73
2023-05-29T12:29:07.826Z,18.76
2023-05-29T12:31:34.055Z,18.76
2023-05-29T12:34:00.200Z,18.75
2023-05-29T12:36:26.357Z,18.77
2023-05-29T12:38:52.495Z,18.77
2023-05-29T12:41:18.656Z,18.77
2023-05-29T12:43:44.826Z,18.77
2023-05-29T12:46:10.980Z,18.77
2023-05-29T12:48:37.139Z,18.77
2023-05-29T12:51:03.300Z,18.76
2023-05-29T12:53:29.446Z,18.77
2023-05-29T12:55:55.796Z,18.78
2023-05-29T12:58:22.114Z,18.78
2023-05-29T13:00:48.250Z,18.79
2023-05-29T13:03:14.450Z,18.79
2023-05-29T13:05:40.692Z,18.80
2023-05-29T13:08:06.848Z,18.79
2023-05-29T13:10:32.999Z,18.80
2023-05-29T13:12:59.220Z,18.80
2023-05-29T13:15:25.346Z,18.80
2023-05-29T13:17:51.730Z,18.81
2023-05-29T13:20:18.069Z,18.83
2023-05-29T13:22:44.202Z,18.82
2023-05-29T13:25:10.376Z,18.82
2023-05-29T13:27:36.538Z,18.82
2023-05-29T13:30:02.686Z,18.82
2023-05-29T13:32:28.869Z,18.83
2023-05-29T13:34:55.034Z,18.83
2023-05-29T13:37:21.166Z,18.83
2023-05-29T13:39:47.301Z,18.84
2023-05-29T13:42:13.453Z,18.84
2023-05-29T13:44:39.623Z,18.84
2023-05-29T13:47:05.759Z,18.84
2023-05-29T13:49:31.915Z,18.84
2023-05-29T13:51:58.048Z,18.84
2023-05-29T13:54:24.206Z,18.85
2023-05-29T13:56:50.358Z,18.85
2023-05-29T13:59:16.555Z,18.86
2023-05-29T14:01:42.773Z,18.86
2023-05-29T14:04:09.088Z,18.86
2023-05-29T14:06:35.298Z,18.87
2023-05-29T14:09:01.453Z,18.87
2023-05-29T14:11:27.614Z,18.87
2023-05-29T14:13:53.759Z,18.88
2023-05-29T14:16:20.044Z,18.88
2023-05-29T14:18:46.699Z,18.89
2023-05-29T14:21:12.865Z,18.89
2023-05-29T14:23:41.098Z,18.89
2023-05-29T14:26:07.282Z,18.91
2023-05-29T14:28:33.452Z,18.90
2023-05-29T14:30:59.612Z,18.91
2023-05-29T14:33:25.878Z,18.91
2023-05-29T14:35:52.131Z,18.91
2023-05-29T14:38:18.267Z,18.91
2023-05-29T14:40:47.099Z,18.92
2023-05-29T14:43:15.459Z,18.93
2023-05-29T14:45:41.610Z,18.93
2023-05-29T14:48:07.797Z,18.94
2023-05-29T14:50:33.978Z,18.95
2023-05-29T14:53:00.158Z,18.96
2023-05-29T14:55:26.347Z,18.98
2023-05-29T14:57:52.517Z,18.97
2023-05-29T15:00:20.379Z,18.97
2023-05-29T15:02:46.857Z,18.98
2023-05-29T15:05:13.061Z,18.98
2023-05-29T15:07:39.181Z,18.99
2023-05-29T15:10:05.372Z,18.98
2023-05-29T15:12:31.557Z,18.99
2023-05-29T15:14:57.696Z,18.98
2023-05-29T15:17:23.970Z,18.99
2023-05-29T15:19:50.144Z,19.00
2023-05-29T15:22:16.281Z,19.01
2023-05-29T15:24:42.449Z,19.00
2023-05-29T15:27:08.614Z,19.01
2023-05-29T15:29:34.757Z,19.03
2023-05-29T15:32:00.922Z,19.02
2023-05-29T15:34:27.136Z,19.02
2023-05-29T15:36:53.274Z,19.03
2023-05-29T15:39:19.432Z,19.02
2023-05-29T15:41:45.582Z,19.04
2023-05-29T15:44:11.746Z,19.04
2023-05-29T15:46:37.934Z,19.03
2023-05-29T15:49:04.187Z,19.03
2023-05-29T15:51:30.329Z,19.03
2023-05-29T15:53:56.534Z,19.05
2023-05-29T15:56:22.691Z,19.05
2023-05-29T15:58:48.826Z,19.05
2023-05-29T16:01:15.001Z,19.05
2023-05-29T16:03:41.247Z,19.05
2023-05-29T16:06:07.418Z,19.08
2023-05-29T16:08:33.591Z,19.08
2023-05-29T16:10:59.722Z,19.08
2023-05-29T16:13:25.876Z,19.07
2023-05-29T16:15:52.067Z,19.09
2023-05-29T16:18:18.216Z,19.09
2023-05-29T16:20:44.392Z,19.09
2023-05-29T16:23:10.687Z,19.10
2023-05-29T16:25:36.927Z,19.11
2023-05-29T16:28:03.088Z,19.11
2023-05-29T16:30:29.567Z,19.12
2023-05-29T16:32:55.834Z,19.13
2023-05-29T16:35:22.022Z,19.13
2023-05-29T16:37:48.190Z,19.12
2023-05-29T16:40:14.379Z,19.12
2023-05-29T16:42:40.545Z,19.12
2023-05-29T16:45:06.807Z,19.12
2023-05-29T16:47:33.113Z,19.12
2023-05-29T16:49:59.369Z,19.13
2023-05-29T16:52:25.684Z,19.13
2023-05-29T16:54:51.819Z,19.12
2023-05-29T16:57:17.969Z,19.13
2023-05-29T16:59:44.165Z,19.12
2023-05-29T17:02:10.355Z,19.13
2023-05-29T17:04:36.573Z,19.11
2023-05-29T17:07:02.771Z,19.11
2023-05-29T17:09:28.913Z,19.11
2023-05-29T17:11:55.060Z,19.12
2023-05-29T17:14:21.273Z,19.11
2023-05-29T17:16:47.425Z,19.12
2023-05-29T17:19:13.633Z,19.10
2023-05-29T17:21:39.824Z,19.11
2023-05-29T17:24:08.084Z,19.11
2023-05-29T17:26:34.425Z,19.11
2023-05-29T17:29:00.682Z,19.12
2023-05-29T17:31:26.857Z,19.14
2023-05-29T17:33:53.041Z,19.13
2023-05-29T17:36:19.221Z,19.13
2023-05-29T17:38:45.362Z,19.14
2023-05-29T17:41:11.534Z,19.14
2023-05-29T17:43:37.790Z,19.14
2023-05-29T17:46:03.983Z,19.14
2023-05-29T17:48:30.116Z,19.14
2023-05-29T17:50:56.291Z,19.14
2023-05-29T17:53:22.427Z,19.14
2023-05-29T17:55:48.638Z,19.13
2023-05-29T17:58:14.821Z,19.14
2023-05-29T18:00:40.987Z,19.13
2023-05-29T18:03:07.315Z,19.13
2023-05-29T18:05:33.577Z,19.13
2023-05-29T18:07:59.727Z,19.13
2023-05-29T18:10:25.915Z,19.12
2023-05-29T18:12:52.080Z,19.14
2023-05-29T18:15:18.234Z,19.13
2023-05-29T18:17:44.470Z,19.13
2023-05-29T18:20:10.828Z,19.13
2023-05-29T18:22:36.997Z,19.13
2023-05-29T18:25:03.167Z,19.13
2023-05-29T18:27:29.486Z,19.12
2023-05-29T18:29:55.680Z,19.14
2023-05-29T18:32:22.005Z,19.13
2023-05-29T18:34:48.528Z,19.12
2023-05-29T18:37:14.668Z,19.11
2023-05-29T18:39:40.851Z,19.12
2023-05-29T18:42:07.030Z,19.13
2023-05-29T18:44:33.164Z,19.12
2023-05-29T18:46:59.324Z,19.12
2023-05-29T18:49:26.406Z,19.13
2023-05-29T18:51:54.546Z,19.12
2023-05-29T18:54:20.691Z,19.11
2023-05-29T18:56:46.866Z,19.12
2023-05-29T18:59:13.141Z,19.11
2023-05-29T19:01:40.932Z,19.11
2023-05-29T19:04:07.414Z,19.12
2023-05-29T19:06:33.701Z,19.11
2023-05-29T19:08:59.839Z,19.12
2023-05-29T19:11:25.992Z,19.11
2023-05-29T19:13:52.130Z,19.11
2023-05-29T19:16:18.333Z,19.11
2023-05-29T19:18:44.548Z,19.12
2023-05-29T19:21:10.699Z,19.12
2023-05-29T19:23:36.908Z,19.11
2023-05-29T19:26:03.097Z,19.10
2023-05-29T19:28:29.258Z,19.11
2023-05-29T19:30:55.417Z,19.10
2023-05-29T19:33:21.698Z,19.09
2023-05-29T19:35:47.924Z,19.09
2023-05-29T19:38:14.085Z,19.09
2023-05-29T19:40:40.251Z,19.09
2023-05-29T19:43:06.404Z,19.09
2023-05-29T19:45:32.555Z,19.10
2023-05-29T19:47:58.764Z,19.08
2023-05-29T19:50:24.912Z,19.09
2023-05-29T19:52:51.056Z,19.07
2023-05-29T19:55:17.248Z,19.08
2023-05-29T19:57:43.394Z,19.07
2023-05-29T20:00:09.583Z,19.07
2023-05-29T20:02:35.787Z,19.05
2023-05-29T20:05:01.997Z,19.05
2023-05-29T20:07:28.238Z,19.05
2023-05-29T20:09:54.400Z,19.05
2023-05-29T20:12:20.535Z,19.04
2023-05-29T20:14:46.662Z,19.04
2023-05-29T20:17:12.811Z,19.05
2023-05-29T20:19:38.953Z,19.04
2023-05-29T20:22:05.100Z,19.05
2023-05-29T20:24:31.261Z,19.03
2023-05-29T20:26:57.408Z,19.03
2023-05-29T20:29:23.556Z,19.03
2023-05-29T20:31:49.764Z,19.03
2023-05-29T20:34:15.908Z,19.03
2023-05-29T20:36:42.095Z,19.02
2023-05-29T20:39:12.314Z,19.02
2023-05-29T20:41:42.828Z,19.02
2023-05-29T20:44:08.981Z,19.02
2023-05-29T20:46:35.171Z,19.01
2023-05-29T20:49:01.368Z,19.03
2023-05-29T20:51:27.536Z,19.02
2023-05-29T20:53:53.725Z,19.00
2023-05-29T20:56:19.876Z,19.00
2023-05-29T20:58:46.021Z,18.99
2023-05-29T21:01:12.192Z,18.99
2023-05-29T21:03:38.486Z,18.99
2023-05-29T21:06:04.754Z,18.98
2023-05-29T21:08:30.908Z,18.98
2023-05-29T21:10:57.299Z,18.98
2023-05-29T21:13:23.694Z,18.97
2023-05-29T21:15:50.049Z,18.97
2023-05-29T21:18:16.332Z,18.97
2023-05-29T21:20:42.574Z,18.96
2023-05-29T21:23:08.761Z,18.94
2023-05-29T21:25:34.913Z,18.94
2023-05-29T21:28:01.058Z,18.93
2023-05-29T21:30:27.209Z,18.93
2023-05-29T21:32:53.463Z,18.94
2023-05-29T21:35:19.686Z,18.92
2023-05-29T21:37:45.867Z,18.92
2023-05-29T21:40:12.021Z,18.92
2023-05-29T21:42:38.169Z,18.91
2023-05-29T21:45:04.390Z,18.91
2023-05-29T21:47:30.594Z,18.90
2023-05-29T21:49:56.754Z,18.91
2023-05-29T21:52:22.914Z,18.90
2023-05-29T21:54:49.062Z,18.91
2023-05-29T21:57:15.211Z,18.89
2023-05-29T21:59:41.379Z,18.88
2023-05-29T22:02:07.578Z,18.89
2023-05-29T22:04:33.773Z,18.87
2023-05-29T22:06:59.938Z,18.87
2023-05-29T22:09:26.066Z,18.86
2023-05-29T22:11:52.277Z,18.86
2023-05-29T22:14:18.485Z,18.85
2023-05-29T22:16:44.691Z,18.84
2023-05-29T22:19:10.880Z,18.85
2023-05-29T22:21:37.043Z,18.84
2023-05-29T22:24:03.829Z,18.84
2023-05-29T22:26:30.079Z,18.84
2023-05-29T22:28:56.256Z,18.84
2023-05-29T22:31:22.433Z,18.83
2023-05-29T22:33:48.615Z,18.84
2023-05-29T22:36:14.775Z,18.83
2023-05-29T22:38:41.008Z,18.82
2023-05-29T22:41:07.169Z,18.82
2023-05-29T22:43:33.576Z,18.82
2023-05-29T22:45:59.993Z,18.80
2023-05-29T22:48:26.260Z,18.79
2023-05-29T22:50:52.436Z,18.78
2023-05-29T22:53:18.675Z,18.78
2023-05-29T22:55:44.955Z,18.77
2023-05-29T22:58:11.250Z,18.77
2023-05-29T23:00:37.488Z,18.77
2023-05-29T23:03:03.769Z,18.76
2023-05-29T23:05:30.056Z,18.75
2023-05-29T23:07:56.258Z,18.73
2023-05-29T23:10:22.450Z,18.73
2023-05-29T23:12:48.637Z,18.73
2023-05-29T23:15:14.781Z,18.74
2023-05-29T23:17:40.986Z,18.72
2023-05-29T23:20:07.247Z,18.70
2023-05-29T23:22:33.396Z,18.70
2023-05-29T23:24:59.544Z,18.71
2023-05-29T23:27:25.711Z,18.72
2023-05-29T23:29:51.837Z,18.70
2023-05-29T23:32:17.985Z,18.70
2023-05-29T23:34:44.149Z,18.69
2023-05-29T23:37:10.303Z,18.69
2023-05-29T23:39:36.469Z,18.69
2023-05-29T23:42:02.644Z,18.69
2023-05-29T23:44:28.868Z,18.69
2023-05-29T23:46:55.087Z,18.68
2023-05-29T23:49:21.328Z,18.68
2023-05-29T23:51:47.471Z,18.67
2023-05-29T23:54:13.624Z,18.67
2023-05-29T23:56:39.787Z,18.66
2023-05-29T23:59:05.919Z,18.66
